createdAt,value
2022-11-12T00:01:15.419Z,20.5
2022-11-12T00:06:53.647Z,20.6
2022-11-12T00:12:31.274Z,20.6
2022-11-12T00:18:08.349Z,20.5
2022-11-12T00:23:46.888Z,20.5
2022-11-12T00:29:27.553Z,20.6
2022-11-12T00:35:06.821Z,20.6
2022-11-12T00:40:46.290Z,20.5
2022-11-12T00:46:08.352Z,20.5
2022-11-12T00:51:30.661Z,20.5
2022-11-12T00:57:08.923Z,20.5
2022-11-12T01:02:31.904Z,20.5
2022-11-12T01:08:13.475Z,20.5
2022-11-12T01:13:55.453Z,20.5
2022-11-12T01:19:02.203Z,20.5
2022-11-12T01:24:40.435Z,20.5
2022-11-12T01:30:18.582Z,20.5
2022-11-12T01:35:40.574Z,20.5
2022-11-12T01:41:19.881Z,20.5
2022-11-12T01:46:42.986Z,20.5
2022-11-12T01:52:26.918Z,20.5
2022-11-12T01:58:08.225Z,20.5
2022-11-12T02:03:47.053Z,20.4
2022-11-12T02:09:24.549Z,20.4
2022-11-12T02:15:02.841Z,20.5
2022-11-12T02:20:25.601Z,20.5
2022-11-12T02:26:02.528Z,20.6
2022-11-12T02:31:24.191Z,20.6
2022-11-12T02:37:02.556Z,20.7
2022-11-12T02:42:25.303Z,20.8
2022-11-12T02:48:02.745Z,20.9
2022-11-12T02:53:41.135Z,21
2022-11-12T03:04:10.586Z,21.2
2022-11-12T03:09:55.243Z,21.3
2022-11-12T03:15:17.188Z,21.4
2022-11-12T03:20:38.969Z,21.4
2022-11-12T03:26:17.692Z,21.4
2022-11-12T03:31:56.500Z,21.5
2022-11-12T03:37:33.001Z,21.6
2022-11-12T03:48:17.428Z,21.8
2022-11-12T03:53:38.862Z,21.8
2022-11-12T03:59:01.735Z,21.9
2022-11-12T04:04:08.089Z,21.9
2022-11-12T04:09:15.186Z,21.9
2022-11-12T04:14:37.927Z,21.9
2022-11-12T04:19:44.685Z,21.9
2022-11-12T04:24:51.163Z,21.9
2022-11-12T04:29:57.262Z,22
2022-11-12T04:35:20.028Z,22
2022-11-12T04:40:31.984Z,22
2022-11-12T04:45:54.412Z,22
2022-11-12T04:51:17.368Z,22.1
2022-11-12T04:56:39.405Z,22.1
2022-11-12T05:02:01.941Z,22.1
2022-11-12T05:07:39.644Z,22.1
2022-11-12T05:13:18.164Z,22.1
2022-11-12T05:18:56.262Z,22.1
2022-11-12T05:25:30.436Z,22.1
2022-11-12T05:31:10.112Z,22.2
2022-11-12T05:36:50.672Z,22.1
2022-11-12T05:42:55.513Z,22.1
2022-11-12T05:48:40.511Z,22.1
2022-11-12T05:54:40.229Z,22.1
2022-11-12T06:00:26.056Z,22.1
2022-11-12T06:05:48.760Z,22.1
2022-11-12T06:11:11.232Z,22.2
2022-11-12T06:16:33.508Z,22.1
2022-11-12T06:21:56.097Z,22.2
2022-11-12T06:27:24.913Z,22.2
2022-11-12T06:32:47.953Z,22.2
2022-11-12T06:38:16.228Z,22.2
2022-11-12T06:43:37.555Z,22.1
2022-11-12T06:48:45.120Z,22.2
2022-11-12T06:54:23.584Z,22.2
2022-11-12T06:59:45.723Z,22.2
2022-11-12T07:05:27.476Z,22.1
2022-11-12T07:11:09.330Z,22.2
2022-11-12T07:16:37.741Z,22.2
2022-11-12T07:22:05.238Z,22.1
2022-11-12T07:27:31.365Z,22.1
2022-11-12T07:33:35.587Z,22.1
2022-11-12T07:39:01.131Z,22.1
2022-11-12T07:44:39.711Z,22.1
2022-11-12T07:50:25.280Z,22.1
2022-11-12T07:56:03.531Z,22.1
2022-11-12T08:01:48.061Z,22.1
2022-11-12T08:07:35.236Z,22.1
2022-11-12T08:13:14.194Z,22.1
2022-11-12T08:18:56.430Z,22
2022-11-12T08:24:19.313Z,22
2022-11-12T08:29:58.615Z,22
2022-11-12T08:35:24.233Z,22
2022-11-12T08:41:03.558Z,22
2022-11-12T08:46:43.370Z,22
2022-11-12T08:52:22.645Z,22
2022-11-12T08:58:01.322Z,22
2022-11-12T09:03:40.207Z,21.9
2022-11-12T09:09:19.372Z,21.9
2022-11-12T09:14:20.792Z,21.9
2022-11-12T09:20:32.522Z,21.9
2022-11-12T09:26:10.813Z,21.9
2022-11-12T09:31:50.040Z,21.9
2022-11-12T09:37:29.495Z,21.9
2022-11-12T09:43:09.062Z,21.9
2022-11-12T09:49:19.110Z,21.9
2022-11-12T09:54:57.702Z,21.9
2022-11-12T10:00:34.918Z,21.9
2022-11-12T10:06:16.885Z,21.9
2022-11-12T10:12:01.363Z,21.9
2022-11-12T10:17:42.164Z,21.9
2022-11-12T10:23:20.869Z,21.9
2022-11-12T10:28:59.313Z,21.9
2022-11-12T10:34:37.334Z,21.9
2022-11-12T10:40:15.683Z,21.9
2022-11-12T10:45:58.390Z,21.9
2022-11-12T10:51:37.118Z,21.9
2022-11-12T10:57:15.758Z,21.9
2022-11-12T11:02:59.581Z,21.9
2022-11-12T11:08:38.302Z,21.9
2022-11-12T11:14:01.699Z,21.9
2022-11-12T11:19:24.575Z,21.9
2022-11-12T11:24:51.232Z,21.9
2022-11-12T11:30:29.960Z,21.9
2022-11-12T11:36:08.226Z,21.8
2022-11-12T11:41:46.240Z,21.8
2022-11-12T11:47:30.446Z,21.8
2022-11-12T11:53:27.944Z,21.9
2022-11-12T11:59:05.923Z,21.9
2022-11-12T12:04:44.652Z,21.9
2022-11-12T12:10:40.166Z,21.9
2022-11-12T12:16:30.267Z,21.9
2022-11-12T12:22:09.726Z,21.8
2022-11-12T12:27:48.043Z,21.8
2022-11-12T12:33:30.573Z,21.8
2022-11-12T12:39:09.132Z,21.8
2022-11-12T12:44:53.049Z,21.8
2022-11-12T12:50:15.568Z,21.8
2022-11-12T12:55:55.145Z,21.8
2022-11-12T13:01:23.048Z,21.8
2022-11-12T13:07:01.697Z,21.8
2022-11-12T13:12:25.261Z,21.8
2022-11-12T13:18:03.823Z,21.8
2022-11-12T13:23:49.118Z,21.7
2022-11-12T13:29:12.442Z,21.7
2022-11-12T13:34:56.937Z,21.7
2022-11-12T13:40:23.814Z,21.7
2022-11-12T13:46:03.248Z,21.7
2022-11-12T13:51:47.687Z,21.6
2022-11-12T13:57:14.138Z,21.6
2022-11-12T14:02:41.290Z,21.6
2022-11-12T14:08:20.576Z,21.6
2022-11-12T14:13:58.233Z,21.6
2022-11-12T14:19:40.816Z,21.6
2022-11-12T14:25:26.138Z,21.6
2022-11-12T14:31:06.726Z,21.6
2022-11-12T14:36:45.132Z,21.6
2022-11-12T14:42:26.960Z,21.5
2022-11-12T14:48:27.436Z,21.6
2022-11-12T14:54:14.064Z,21.6
2022-11-12T14:59:59.311Z,21.6
2022-11-12T15:06:40.887Z,21.5
2022-11-12T15:12:10.890Z,21.5
2022-11-12T15:17:33.423Z,21.5
2022-11-12T15:23:17.736Z,21.5
2022-11-12T15:28:56.575Z,21.5
2022-11-12T15:34:19.659Z,21.5
2022-11-12T15:39:57.958Z,21.5
2022-11-12T15:45:05.469Z,21.4
2022-11-12T15:50:19.179Z,21.4
2022-11-12T15:56:04.192Z,21.4
2022-11-12T16:01:41.974Z,21.4
2022-11-12T16:07:04.944Z,21.4
2022-11-12T16:12:27.429Z,21.4
2022-11-12T16:17:50.858Z,21.4
2022-11-12T16:23:29.419Z,21.4
2022-11-12T16:28:52.417Z,21.4
2022-11-12T16:34:31.425Z,21.4
2022-11-12T16:40:09.587Z,21.4
2022-11-12T16:45:47.474Z,21.4
2022-11-12T16:51:25.486Z,21.4
2022-11-12T16:57:07.074Z,21.4
2022-11-12T17:02:49.447Z,21.4
2022-11-12T17:08:14.093Z,21.4
2022-11-12T17:13:40.441Z,21.4
2022-11-12T17:19:02.897Z,21.4
2022-11-12T17:24:31.849Z,21.4
2022-11-12T17:29:58.273Z,21.4
2022-11-12T17:35:20.584Z,21.4
2022-11-12T17:40:44.658Z,21.4
2022-11-12T17:46:06.825Z,21.4
2022-11-12T17:51:28.894Z,21.4
2022-11-12T17:56:37.178Z,21.4
2022-11-12T18:02:00.397Z,21.4
2022-11-12T18:07:23.469Z,21.4
2022-11-12T18:12:51.525Z,21.4
2022-11-12T18:18:00.204Z,21.4
2022-11-12T18:23:23.083Z,21.4
2022-11-12T18:28:45.485Z,21.4
2022-11-12T18:34:08.710Z,21.4
2022-11-12T18:39:31.241Z,21.4
2022-11-12T18:44:58.544Z,21.4
2022-11-12T18:50:08.569Z,21.4
2022-11-12T18:55:15.496Z,21.4
2022-11-12T19:00:38.851Z,21.4
2022-11-12T19:06:08.924Z,21.4
2022-11-12T19:11:21.106Z,21.4
2022-11-12T19:16:33.832Z,21.4
2022-11-12T19:22:00.798Z,21.4
2022-11-12T19:27:38.657Z,21.4
2022-11-12T19:33:01.344Z,21.4
2022-11-12T19:38:38.653Z,21.3
2022-11-12T19:43:52.253Z,21.3
2022-11-12T19:49:15.120Z,21.3
2022-11-12T19:54:25.490Z,21.3
2022-11-12T19:59:54.017Z,21.3
2022-11-12T20:05:32.983Z,21.3
2022-11-12T20:10:56.002Z,21.3
2022-11-12T20:16:41.051Z,21.3
2022-11-12T20:22:19.654Z,21.3
2022-11-12T20:27:59.687Z,21.3
2022-11-12T20:33:41.947Z,21.3
2022-11-12T20:38:44.436Z,21.3
2022-11-12T20:43:51.883Z,21.3
2022-11-12T20:49:00.450Z,21.3
2022-11-12T20:54:51.367Z,21.3
2022-11-12T21:00:34.346Z,21.3
2022-11-12T21:05:57.720Z,21.3
2022-11-12T21:11:38.838Z,21.3
2022-11-12T21:16:52.611Z,21.3
2022-11-12T21:22:31.185Z,21.3
2022-11-12T21:28:09.717Z,21.3
2022-11-12T21:33:36.035Z,21.2
2022-11-12T21:39:14.506Z,21.2
2022-11-12T21:44:37.280Z,21.3
2022-11-12T21:50:19.264Z,21.3
2022-11-12T21:55:57.038Z,21.3
2022-11-12T22:02:04.192Z,21.3
2022-11-12T22:07:12.363Z,21.3
2022-11-12T22:13:12.351Z,21.3
2022-11-12T22:18:50.048Z,21.3
2022-11-12T22:24:15.048Z,21.3
2022-11-12T22:29:40.107Z,21.3
2022-11-12T22:35:22.434Z,21.3
2022-11-12T22:41:03.373Z,21.3
2022-11-12T22:46:41.014Z,21.3
2022-11-12T22:52:19.021Z,21.3
2022-11-12T22:57:56.809Z,21.2
2022-11-12T23:03:37.227Z,21.2
2022-11-12T23:09:16.209Z,21.2
2022-11-12T23:14:27.344Z,21.2
2022-11-12T23:19:49.773Z,21.2
2022-11-12T23:25:17.141Z,21.2
2022-11-12T23:30:55.090Z,21.2
2022-11-12T23:36:33.078Z,21.2
2022-11-12T23:42:15.754Z,21.2
2022-11-12T23:47:53.825Z,21.2
2022-11-12T23:53:32.101Z,21.2
2022-11-12T23:58:23.068Z,21.2
